createdAt,value
2019-04-22T00:00:30.313Z,6.87
2019-04-22T00:02:59.814Z,6.95
2019-04-22T00:05:52.791Z,7.50
2019-04-22T00:08:24.185Z,7.47
2019-04-22T00:10:53.999Z,8.23
2019-04-22T00:13:32.196Z,7.20
2019-04-22T00:15:56.496Z,8.25
2019-04-22T00:18:50.423Z,7.53
2019-04-22T00:21:07.221Z,7.83
2019-04-22T00:23:31.767Z,7.40
2019-04-22T00:26:08.689Z,7.08
2019-04-22T00:28:41.640Z,7.12
2019-04-22T00:31:21.309Z,7.03
2019-04-22T00:33:53.333Z,7.00
2019-04-22T00:36:23.535Z,6.93
2019-04-22T00:38:58.710Z,6.83
2019-04-22T00:41:28.669Z,7.23
2019-04-22T00:44:02.943Z,7.05
2019-04-22T00:46:33.034Z,6.87
2019-04-22T00:49:46.472Z,6.95
2019-04-22T00:51:33.747Z,6.53
2019-04-22T00:54:05.935Z,7.20
2019-04-22T00:56:32.807Z,7.17
2019-04-22T00:59:11.475Z,6.42
2019-04-22T01:01:36.912Z,7.50
2019-04-22T01:06:41.638Z,7.25
2019-04-22T01:09:33.006Z,7.28
2019-04-22T01:11:44.994Z,7.27
2019-04-22T01:14:14.492Z,7.77
2019-04-22T01:16:48.995Z,7.50
2019-04-22T01:19:25.997Z,7.00
2019-04-22T01:21:51.021Z,7.03
2019-04-22T01:24:25.219Z,6.95
2019-04-22T01:26:50.769Z,7.05
2019-04-22T01:29:17.587Z,6.97
2019-04-22T01:31:38.822Z,7.27
2019-04-22T01:34:23.407Z,7.07
2019-04-22T01:37:00.091Z,7.03
2019-04-22T01:39:37.518Z,6.35
2019-04-22T01:42:06.072Z,6.45
2019-04-22T01:44:40.807Z,7.10
2019-04-22T01:47:13.161Z,5.95
2019-04-22T01:49:40.140Z,6.17
2019-04-22T01:54:52.558Z,6.33
2019-04-22T01:57:17.489Z,5.50
2019-04-22T01:59:43.143Z,6.07
2019-04-22T02:02:25.489Z,6.37
2019-04-22T02:04:53.292Z,5.97
2019-04-22T02:07:23.456Z,7.13
2019-04-22T02:09:55.060Z,6.62
2019-04-22T02:12:25.689Z,5.83
2019-04-22T02:14:57.862Z,6.03
2019-04-22T02:20:05.059Z,5.60
2019-04-22T02:22:50.171Z,6.58
2019-04-22T02:25:12.154Z,6.30
2019-04-22T02:27:43.217Z,6.30
2019-04-22T02:30:06.049Z,6.47
2019-04-22T02:33:08.181Z,5.90
2019-04-22T02:35:29.163Z,6.87
2019-04-22T02:37:45.450Z,6.05
2019-04-22T02:40:17.470Z,6.08
2019-04-22T02:42:52.173Z,6.03
2019-04-22T02:45:27.164Z,5.75
2019-04-22T02:47:58.550Z,5.97
2019-04-22T02:50:19.401Z,7.27
2019-04-22T02:52:55.690Z,5.92
2019-04-22T02:57:59.697Z,6.83
2019-04-22T03:10:47.364Z,6.62
2019-04-22T03:13:23.298Z,6.83
2019-04-22T03:15:56.889Z,6.53
2019-04-22T03:18:21.722Z,5.70
2019-04-22T03:20:51.939Z,6.47
2019-04-22T03:23:25.483Z,5.35
2019-04-22T03:28:32.957Z,6.30
2019-04-22T03:37:11.054Z,5.22
2019-04-22T03:39:29.678Z,5.75
2019-04-22T03:42:01.162Z,5.67
2019-04-22T03:44:24.851Z,6.03
2019-04-22T03:46:53.669Z,5.65
2019-04-22T03:49:28.222Z,5.65
2019-04-22T03:52:03.005Z,5.80
2019-04-22T03:54:29.085Z,5.20
2019-04-22T03:57:18.393Z,5.90
2019-04-22T03:59:29.435Z,5.92
2019-04-22T04:01:58.610Z,5.83
2019-04-22T04:04:24.301Z,5.97
2019-04-22T04:09:34.340Z,5.70
2019-04-22T04:11:59.613Z,5.75
2019-04-22T04:17:02.140Z,5.40
2019-04-22T04:19:46.003Z,6.00
2019-04-22T04:22:12.067Z,5.25
2019-04-22T04:27:18.339Z,5.72
2019-04-22T04:30:02.628Z,5.47
2019-04-22T04:35:03.189Z,6.05
2019-04-22T04:37:38.751Z,4.90
2019-04-22T04:39:59.924Z,5.28
2019-04-22T04:45:18.968Z,5.10
2019-04-22T04:47:35.780Z,5.30
2019-04-22T04:49:54.639Z,5.30
2019-04-22T04:52:44.677Z,4.72
2019-04-22T04:55:06.249Z,5.05
2019-04-22T05:02:39.930Z,5.12
2019-04-22T05:05:06.844Z,6.08
2019-04-22T05:10:23.930Z,5.92
2019-04-22T05:12:41.788Z,6.10
2019-04-22T05:15:09.004Z,6.00
2019-04-22T05:20:13.423Z,5.60
2019-04-22T05:25:11.968Z,5.80
2019-04-22T05:27:40.107Z,5.65
2019-04-22T05:35:14.383Z,5.53
2019-04-22T05:37:40.441Z,6.05
2019-04-22T05:40:20.502Z,5.10
2019-04-22T05:42:48.320Z,6.10
2019-04-22T05:45:21.725Z,5.08
2019-04-22T05:47:52.303Z,5.35
2019-04-22T05:50:20.410Z,6.15
2019-04-22T05:52:51.571Z,5.92
2019-04-22T05:55:32.710Z,5.97
2019-04-22T05:57:59.688Z,5.87
2019-04-22T06:00:49.215Z,5.67
2019-04-22T06:03:16.624Z,6.72
2019-04-22T06:05:38.667Z,5.55
2019-04-22T06:08:03.983Z,6.10
2019-04-22T06:10:45.630Z,5.55
2019-04-22T06:13:04.460Z,5.80
2019-04-22T06:15:37.527Z,4.70
2019-04-22T06:18:23.902Z,5.35
2019-04-22T06:20:59.387Z,5.03
2019-04-22T06:23:25.722Z,5.08
2019-04-22T06:26:04.840Z,5.33
2019-04-22T06:31:08.879Z,5.40
2019-04-22T06:33:36.020Z,4.50
2019-04-22T06:36:05.125Z,4.60
2019-04-22T06:41:09.075Z,5.40
2019-04-22T06:43:35.579Z,4.22
2019-04-22T06:46:09.826Z,4.25
2019-04-22T06:48:35.757Z,4.33
2019-04-22T06:51:08.090Z,5.30
2019-04-22T06:53:41.889Z,4.78
2019-04-22T06:56:10.961Z,4.42
2019-04-22T06:58:45.782Z,4.12
2019-04-22T07:01:18.193Z,4.53
2019-04-22T07:03:57.046Z,4.20
2019-04-22T07:06:23.976Z,4.25
2019-04-22T07:11:18.190Z,4.05
2019-04-22T07:13:57.498Z,4.47
2019-04-22T07:16:26.119Z,4.58
2019-04-22T07:18:56.612Z,4.42
2019-04-22T07:21:30.857Z,4.78
2019-04-22T07:24:17.864Z,4.83
2019-04-22T07:26:24.751Z,4.55
2019-04-22T07:28:59.518Z,4.55
2019-04-22T07:31:30.568Z,4.22
2019-04-22T07:34:13.449Z,4.90
2019-04-22T07:39:08.652Z,4.97
2019-04-22T07:41:38.202Z,5.45
2019-04-22T07:46:43.055Z,4.65
2019-04-22T07:49:10.894Z,4.55
2019-04-22T07:54:18.168Z,4.53
2019-04-22T07:56:44.782Z,4.72
2019-04-22T07:59:18.721Z,5.22
2019-04-22T08:01:42.782Z,5.17
2019-04-22T08:06:51.984Z,4.72
2019-04-22T08:11:52.513Z,5.15
2019-04-22T08:14:30.018Z,5.00
2019-04-22T08:17:01.043Z,5.28
2019-04-22T08:19:28.091Z,4.97
2019-04-22T08:22:02.960Z,4.72
2019-04-22T08:24:35.708Z,4.40
2019-04-22T08:27:04.844Z,4.60
2019-04-22T08:29:45.982Z,4.28
2019-04-22T08:32:04.667Z,4.12
2019-04-22T08:34:37.073Z,5.00
2019-04-22T08:39:39.090Z,4.83
2019-04-22T08:42:17.994Z,4.75
2019-04-22T08:44:56.753Z,4.55
2019-04-22T08:47:19.134Z,4.92
2019-04-22T08:49:50.716Z,5.03
2019-04-22T08:54:51.243Z,4.90
2019-04-22T08:57:26.089Z,5.17
2019-04-22T08:59:57.491Z,4.92
2019-04-22T09:02:25.909Z,5.72
2019-04-22T09:04:56.008Z,6.30
2019-04-22T09:07:28.409Z,5.28
2019-04-22T09:10:00.052Z,5.33
2019-04-22T09:14:55.317Z,6.50
2019-04-22T09:17:53.085Z,5.87
2019-04-22T09:20:08.002Z,6.30
2019-04-22T09:22:33.303Z,6.88
2019-04-22T09:25:03.771Z,6.72
2019-04-22T09:27:44.305Z,6.60
2019-04-22T09:30:16.395Z,7.28
2019-04-22T09:35:09.700Z,6.95
2019-04-22T09:37:49.919Z,7.78
2019-04-22T09:40:15.248Z,7.05
2019-04-22T09:42:50.479Z,7.33
2019-04-22T09:45:15.122Z,7.10
2019-04-22T09:47:55.500Z,7.08
2019-04-22T09:50:24.225Z,7.67
2019-04-22T09:52:53.410Z,7.30
2019-04-22T09:55:26.819Z,7.22
2019-04-22T09:57:55.814Z,6.90
2019-04-22T10:00:28.630Z,7.87
2019-04-22T10:03:06.914Z,8.35
2019-04-22T10:05:32.617Z,6.72
2019-04-22T10:08:14.573Z,7.28
2019-04-22T10:13:12.812Z,7.75
2019-04-22T10:15:45.491Z,7.53
2019-04-22T10:18:09.762Z,7.70
2019-04-22T10:20:46.074Z,7.37
2019-04-22T10:23:23.037Z,7.87
2019-04-22T10:25:54.115Z,7.65
2019-04-22T10:28:26.971Z,8.58
2019-04-22T10:33:14.914Z,8.30
2019-04-22T10:35:32.242Z,8.78
2019-04-22T10:38:01.381Z,9.13
2019-04-22T10:40:34.534Z,9.03
2019-04-22T10:43:07.326Z,9.58
2019-04-22T10:45:38.197Z,9.68
2019-04-22T10:48:10.446Z,9.08
2019-04-22T10:50:46.605Z,8.58
2019-04-22T10:53:19.709Z,8.68
2019-04-22T10:55:51.545Z,9.65
2019-04-22T10:58:22.840Z,9.60
2019-04-22T11:00:54.314Z,10.75
2019-04-22T11:03:24.680Z,10.25
2019-04-22T11:05:54.393Z,9.93
2019-04-22T11:08:32.242Z,10.35
2019-04-22T11:11:12.009Z,9.90
2019-04-22T11:13:28.252Z,9.88
2019-04-22T11:15:58.544Z,10.20
2019-04-22T11:18:29.574Z,10.38
2019-04-22T11:21:01.761Z,10.30
2019-04-22T11:23:32.427Z,10.82
2019-04-22T11:26:03.781Z,10.53
2019-04-22T11:28:33.921Z,9.90
2019-04-22T11:31:03.815Z,9.18
2019-04-22T11:33:34.544Z,8.83
2019-04-22T11:36:06.171Z,8.90
2019-04-22T11:38:44.663Z,8.45
2019-04-22T11:41:09.255Z,9.20
2019-04-22T11:43:39.074Z,9.20
2019-04-22T11:46:11.383Z,8.48
2019-04-22T11:48:42.422Z,8.28
2019-04-22T11:51:13.833Z,8.45
2019-04-22T11:53:45.074Z,7.97
2019-04-22T11:56:14.989Z,7.33
2019-04-22T11:58:44.693Z,7.55
2019-04-22T12:01:14.870Z,7.70
2019-04-22T12:03:46.226Z,7.72
2019-04-22T12:06:17.798Z,6.95
2019-04-22T12:08:47.833Z,6.33
2019-04-22T12:11:18.617Z,6.72
2019-04-22T12:13:48.574Z,6.75
2019-04-22T12:16:19.221Z,7.15
2019-04-22T12:18:49.368Z,6.75
2019-04-22T12:21:19.521Z,6.28
2019-04-22T12:23:50.821Z,6.67
2019-04-22T12:26:22.908Z,5.62
2019-04-22T12:28:59.282Z,6.40
2019-04-22T12:31:35.826Z,5.92
2019-04-22T12:34:08.002Z,5.35
2019-04-22T12:36:38.464Z,5.12
2019-04-22T12:39:09.669Z,5.65
2019-04-22T12:41:42.221Z,4.67
2019-04-22T12:44:13.325Z,5.10
2019-04-22T12:46:43.941Z,5.78
2019-04-22T12:49:14.271Z,5.60
2019-04-22T12:51:45.375Z,5.22
2019-04-22T12:54:15.252Z,4.97
2019-04-22T12:56:45.962Z,5.10
2019-04-22T12:59:17.190Z,5.12
2019-04-22T13:01:47.118Z,5.45
2019-04-22T13:04:19.483Z,5.30
2019-04-22T13:06:48.142Z,4.28
2019-04-22T13:09:19.471Z,5.22
2019-04-22T13:11:50.908Z,5.10
2019-04-22T13:14:21.222Z,5.40
2019-04-22T13:16:54.847Z,5.08
2019-04-22T13:19:26.505Z,4.22
2019-04-22T13:21:56.612Z,4.25
2019-04-22T13:24:27.877Z,4.20
2019-04-22T13:26:59.116Z,4.37
2019-04-22T13:29:28.933Z,3.67
2019-04-22T13:31:58.718Z,3.58
2019-04-22T13:34:37.644Z,3.25
2019-04-22T13:37:01.230Z,3.98
2019-04-22T13:39:31.432Z,3.12
2019-04-22T13:42:05.634Z,4.00
2019-04-22T13:44:33.581Z,3.55
2019-04-22T13:47:24.014Z,3.90
2019-04-22T13:50:06.052Z,3.87
2019-04-22T13:55:01.764Z,3.87
2019-04-22T13:57:27.621Z,4.50
2019-04-22T13:59:46.349Z,4.28
2019-04-22T14:02:26.712Z,4.53
2019-04-22T14:04:59.140Z,4.37
2019-04-22T14:07:30.618Z,4.55
2019-04-22T14:10:00.673Z,4.85
2019-04-22T14:12:32.847Z,5.37
2019-04-22T14:15:04.180Z,4.62
2019-04-22T14:17:35.002Z,5.05
2019-04-22T14:20:06.668Z,4.95
2019-04-22T14:22:36.620Z,5.50
2019-04-22T14:25:06.964Z,5.17
2019-04-22T14:27:47.539Z,4.83
2019-04-22T14:30:10.911Z,4.70
2019-04-22T14:32:42.132Z,4.80
2019-04-22T14:35:13.291Z,5.55
2019-04-22T14:37:43.176Z,5.12
2019-04-22T14:40:14.489Z,5.27
2019-04-22T14:43:10.927Z,5.65
2019-04-22T14:45:50.710Z,5.60
2019-04-22T14:48:11.004Z,5.40
2019-04-22T14:50:42.248Z,4.87
2019-04-22T14:53:14.413Z,5.25
2019-04-22T14:55:29.639Z,5.37
2019-04-22T14:57:57.032Z,5.80
2019-04-22T15:00:29.570Z,4.90
2019-04-22T15:02:59.821Z,5.20
2019-04-22T15:05:30.303Z,5.37
2019-04-22T15:08:01.208Z,5.00
2019-04-22T15:10:31.791Z,5.20
2019-04-22T15:13:02.970Z,4.97
2019-04-22T15:15:51.490Z,4.78
2019-04-22T15:18:31.489Z,4.70
2019-04-22T15:21:06.792Z,4.28
2019-04-22T15:23:38.285Z,4.92
2019-04-22T15:26:08.588Z,4.78
2019-04-22T15:28:39.598Z,7.85
2019-04-22T15:31:11.157Z,4.75
2019-04-22T15:33:41.977Z,5.08
2019-04-22T15:36:14.065Z,5.60
2019-04-22T15:38:45.022Z,4.80
2019-04-22T15:41:14.930Z,5.17
2019-04-22T15:43:45.776Z,4.65
2019-04-22T15:46:17.919Z,5.30
2019-04-22T15:48:48.493Z,4.70
2019-04-22T15:51:18.522Z,4.70
2019-04-22T15:53:49.544Z,4.47
2019-04-22T15:56:20.913Z,4.47
2019-04-22T15:58:51.493Z,5.03
2019-04-22T16:01:26.362Z,4.47
2019-04-22T16:03:52.725Z,4.55
2019-04-22T16:06:23.693Z,4.55
2019-04-22T16:08:54.132Z,4.78
2019-04-22T16:11:24.191Z,4.90
2019-04-22T16:13:54.725Z,4.75
2019-04-22T16:16:24.838Z,5.03
2019-04-22T16:18:54.559Z,4.90
2019-04-22T16:21:32.694Z,5.28
2019-04-22T16:24:11.113Z,4.62
2019-04-22T16:26:56.224Z,4.97
2019-04-22T16:29:27.352Z,4.90
2019-04-22T16:31:57.634Z,4.90
2019-04-22T16:34:27.501Z,5.08
2019-04-22T16:36:58.386Z,5.08
2019-04-22T16:39:28.829Z,4.72
2019-04-22T16:41:58.643Z,5.08
2019-04-22T16:44:28.414Z,4.95
2019-04-22T16:46:59.458Z,4.85
2019-04-22T16:49:29.773Z,4.95
2019-04-22T16:52:00.311Z,5.80
2019-04-22T16:54:30.717Z,4.75
2019-04-22T16:57:01.912Z,4.58
2019-04-22T16:59:32.744Z,5.33
2019-04-22T17:02:20.444Z,5.03
2019-04-22T17:05:07.712Z,5.97
2019-04-22T17:07:38.276Z,5.62
2019-04-22T17:10:08.385Z,5.05
2019-04-22T17:12:46.604Z,4.78
2019-04-22T17:15:12.281Z,5.05
2019-04-22T17:17:43.145Z,4.95
2019-04-22T17:20:13.409Z,4.63
2019-04-22T17:22:43.754Z,5.47
2019-04-22T17:25:14.079Z,4.12
2019-04-22T17:27:45.496Z,4.87
2019-04-22T17:30:17.050Z,4.08
2019-04-22T17:32:48.230Z,5.12
2019-04-22T17:35:19.688Z,4.83
2019-04-22T17:38:06.771Z,5.08
2019-04-22T17:40:44.865Z,5.00
2019-04-22T17:43:32.682Z,4.90
2019-04-22T17:46:12.336Z,4.50
2019-04-22T17:49:05.942Z,6.03
2019-04-22T17:51:39.375Z,4.53
2019-04-22T17:54:12.898Z,4.75
2019-04-22T17:56:43.697Z,4.83
2019-04-22T17:59:12.250Z,4.90
2019-04-22T18:01:44.001Z,5.03
2019-04-22T18:03:57.414Z,4.92
2019-04-22T18:06:59.489Z,5.00
2019-04-22T18:09:19.359Z,5.15
2019-04-22T18:11:50.954Z,5.05
2019-04-22T18:14:39.938Z,5.28
2019-04-22T18:16:52.099Z,4.72
2019-04-22T18:19:26.210Z,4.87
2019-04-22T18:21:51.737Z,5.15
2019-04-22T18:24:19.412Z,4.85
2019-04-22T18:26:57.800Z,5.33
2019-04-22T18:29:28.418Z,5.83
2019-04-22T18:31:54.475Z,5.12
2019-04-22T18:34:29.881Z,5.90
2019-04-22T18:37:07.736Z,6.42
2019-04-22T18:39:40.639Z,5.50
2019-04-22T18:42:07.594Z,5.90
2019-04-22T18:44:44.527Z,6.05
2019-04-22T18:47:12.925Z,6.30
2019-04-22T18:49:41.784Z,5.87
2019-04-22T18:52:24.615Z,6.00
2019-04-22T18:55:07.179Z,6.03
2019-04-22T18:57:47.416Z,6.47
2019-04-22T19:00:12.221Z,6.12
2019-04-22T19:02:50.801Z,6.70
2019-04-22T19:05:27.934Z,6.22
2019-04-22T19:08:12.707Z,6.90
2019-04-22T19:10:53.223Z,5.90
2019-04-22T19:13:49.076Z,6.75
2019-04-22T19:15:42.896Z,6.12
2019-04-22T19:18:27.080Z,6.72
2019-04-22T19:20:52.050Z,7.08
2019-04-22T19:23:27.068Z,7.12
2019-04-22T19:25:47.214Z,7.28
2019-04-22T19:28:31.238Z,6.53
2019-04-22T19:31:01.598Z,7.00
2019-04-22T19:33:32.984Z,8.33
2019-04-22T19:35:59.679Z,7.08
2019-04-22T19:38:16.537Z,6.97
2019-04-22T19:43:33.184Z,7.03
2019-04-22T19:46:01.981Z,6.37
2019-04-22T19:48:38.973Z,7.62
2019-04-22T19:51:08.863Z,6.33
2019-04-22T19:53:42.185Z,7.30
2019-04-22T19:56:06.126Z,7.72
2019-04-22T19:58:37.418Z,7.10
2019-04-22T20:01:22.180Z,7.12
2019-04-22T20:04:23.071Z,7.80
2019-04-22T20:06:53.436Z,6.80
2019-04-22T20:09:30.140Z,7.05
2019-04-22T20:12:01.152Z,8.03
2019-04-22T20:14:33.651Z,7.05
2019-04-22T20:16:59.814Z,7.08
2019-04-22T20:19:41.538Z,7.15
2019-04-22T20:22:02.895Z,6.15
2019-04-22T20:24:23.970Z,7.37
2019-04-22T20:27:12.430Z,7.10
2019-04-22T20:29:42.036Z,6.70
2019-04-22T20:32:13.666Z,7.00
2019-04-22T20:34:44.092Z,6.12
2019-04-22T20:37:16.612Z,6.72
2019-04-22T20:40:04.091Z,6.60
2019-04-22T20:42:31.354Z,6.53
2019-04-22T20:44:52.274Z,6.70
2019-04-22T20:47:15.026Z,6.37
2019-04-22T20:49:57.233Z,6.40
2019-04-22T20:54:52.965Z,6.30
2019-04-22T20:57:23.972Z,6.25
2019-04-22T20:59:54.198Z,6.00
2019-04-22T21:02:24.723Z,6.17
2019-04-22T21:04:49.036Z,5.97
2019-04-22T21:07:26.616Z,6.47
2019-04-22T21:09:58.001Z,6.28
2019-04-22T21:12:29.279Z,6.35
2019-04-22T21:15:08.097Z,6.20
2019-04-22T21:17:34.882Z,5.67
2019-04-22T21:20:13.990Z,6.42
2019-04-22T21:22:42.057Z,6.15
2019-04-22T21:25:07.501Z,6.33
2019-04-22T21:27:45.677Z,5.85
2019-04-22T21:30:14.433Z,6.30
2019-04-22T21:32:44.693Z,6.22
2019-04-22T21:35:32.150Z,6.00
2019-04-22T21:37:55.197Z,6.40
2019-04-22T21:40:23.069Z,6.55
2019-04-22T21:42:53.132Z,6.72
2019-04-22T21:45:20.095Z,6.30
2019-04-22T21:48:04.514Z,6.08
2019-04-22T21:50:48.276Z,5.92
2019-04-22T21:53:01.253Z,6.83
2019-04-22T21:55:31.720Z,7.37
2019-04-22T21:58:31.039Z,6.47
2019-04-22T22:01:06.419Z,6.15
2019-04-22T22:03:31.318Z,6.72
2019-04-22T22:05:51.686Z,6.80
2019-04-22T22:08:37.344Z,7.15
2019-04-22T22:11:03.757Z,6.50
2019-04-22T22:13:36.763Z,6.45
2019-04-22T22:16:03.185Z,7.35
2019-04-22T22:18:30.440Z,6.70
2019-04-22T22:21:26.853Z,7.60
2019-04-22T22:23:46.984Z,6.60
2019-04-22T22:26:06.814Z,6.37
2019-04-22T22:28:51.431Z,7.25
2019-04-22T22:31:26.973Z,6.83
2019-04-22T22:33:49.837Z,6.65
2019-04-22T22:36:16.372Z,7.30
2019-04-22T22:38:46.838Z,6.10
2019-04-22T22:41:01.529Z,6.90
2019-04-22T22:43:35.856Z,6.60
2019-04-22T22:46:15.388Z,6.80
2019-04-22T22:48:58.169Z,6.95
2019-04-22T22:51:34.245Z,7.10
2019-04-22T22:53:57.967Z,6.55
2019-04-22T22:56:39.514Z,6.45
2019-04-22T22:58:58.741Z,6.65
2019-04-22T23:01:35.972Z,7.30
2019-04-22T23:04:02.500Z,7.40
2019-04-22T23:06:38.671Z,6.70
2019-04-22T23:09:10.205Z,5.72
2019-04-22T23:11:58.566Z,6.10
2019-04-22T23:14:16.605Z,6.03
2019-04-22T23:16:31.612Z,6.60
2019-04-22T23:19:02.067Z,5.60
2019-04-22T23:21:39.748Z,5.78
2019-04-22T23:24:34.179Z,6.47
2019-04-22T23:27:10.201Z,6.22
2019-04-22T23:29:53.471Z,6.30
2019-04-22T23:32:25.857Z,6.40
2019-04-22T23:35:06.758Z,6.65
2019-04-22T23:37:39.636Z,6.87
2019-04-22T23:40:15.795Z,6.50
2019-04-22T23:42:48.288Z,7.03
2019-04-22T23:45:15.473Z,6.62
2019-04-22T23:47:39.125Z,6.22
2019-04-22T23:50:24.457Z,6.58
2019-04-22T23:52:54.468Z,6.60
2019-04-22T23:55:29.817Z,6.75
2019-04-22T23:58:05.047Z,6.87
